createdAt,value
2022-11-29T00:01:36.964Z,13.20
2022-11-29T00:04:06.203Z,15.30
2022-11-29T00:06:35.699Z,12.27
2022-11-29T00:09:06.983Z,15.47
2022-11-29T00:11:54.078Z,13.13
2022-11-29T00:14:23.182Z,16.67
2022-11-29T00:16:52.729Z,13.27
2022-11-29T00:19:22.647Z,19.13
2022-11-29T00:21:50.614Z,14.33
2022-11-29T00:24:18.883Z,13.07
2022-11-29T00:26:46.728Z,12.33
2022-11-29T00:29:14.729Z,15.07
2022-11-29T00:31:43.142Z,14.27
2022-11-29T00:34:12.811Z,17.20
2022-11-29T00:36:42.505Z,15.87
2022-11-29T00:39:12.028Z,16.43
2022-11-29T00:41:40.485Z,14.83
2022-11-29T00:44:08.692Z,13.47
2022-11-29T00:46:36.525Z,14.90
2022-11-29T00:49:04.761Z,13.77
2022-11-29T00:51:33.157Z,15.33
2022-11-29T00:54:02.378Z,15.67
2022-11-29T00:56:31.102Z,15.37
2022-11-29T00:58:59.049Z,19.20
2022-11-29T01:01:26.917Z,17.07
2022-11-29T01:03:54.812Z,15.27
2022-11-29T01:06:22.690Z,15.30
2022-11-29T01:08:50.662Z,10.97
2022-11-29T01:11:22.164Z,14.30
2022-11-29T01:13:50.648Z,12.43
2022-11-29T01:16:18.685Z,12.33
2022-11-29T01:18:46.770Z,17.97
2022-11-29T01:21:18.333Z,13.23
2022-11-29T01:23:46.726Z,15.03
2022-11-29T01:26:16.592Z,15.63
2022-11-29T01:28:46.966Z,12.67
2022-11-29T01:31:18.089Z,20.00
2022-11-29T01:33:46.082Z,15.00
2022-11-29T01:36:14.790Z,17.57
2022-11-29T01:38:43.514Z,14.93
2022-11-29T01:41:13.820Z,15.80
2022-11-29T01:44:01.382Z,20.93
2022-11-29T01:46:30.863Z,17.20
2022-11-29T01:49:03.158Z,19.30
2022-11-29T01:51:32.245Z,17.57
2022-11-29T01:54:00.426Z,15.97
2022-11-29T01:56:29.996Z,15.40
2022-11-29T01:58:59.190Z,17.93
2022-11-29T02:01:27.126Z,20.40
2022-11-29T02:03:55.202Z,13.07
2022-11-29T02:06:23.636Z,16.57
2022-11-29T02:08:51.417Z,17.13
2022-11-29T02:11:43.210Z,18.33
2022-11-29T02:14:26.025Z,18.33
2022-11-29T02:17:02.838Z,19.10
2022-11-29T02:19:54.485Z,16.23
2022-11-29T02:22:30.019Z,19.23
2022-11-29T02:25:30.441Z,19.97
2022-11-29T02:28:35.767Z,23.17
2022-11-29T02:31:42.223Z,16.13
2022-11-29T02:34:38.818Z,22.53
2022-11-29T02:37:23.589Z,17.83
2022-11-29T02:40:07.987Z,21.70
2022-11-29T02:43:02.732Z,21.77
2022-11-29T02:45:46.918Z,19.07
2022-11-29T02:48:30.729Z,21.77
2022-11-29T02:51:07.091Z,18.93
2022-11-29T02:53:42.047Z,22.03
2022-11-29T02:56:18.061Z,19.60
2022-11-29T02:58:51.281Z,20.87
2022-11-29T03:01:25.454Z,23.97
2022-11-29T03:04:03.709Z,20.60
2022-11-29T03:06:40.439Z,20.20
2022-11-29T03:09:15.030Z,18.50
2022-11-29T03:11:49.681Z,22.27
2022-11-29T03:14:24.795Z,20.53
2022-11-29T03:17:04.046Z,23.23
2022-11-29T03:19:55.562Z,23.73
2022-11-29T03:22:39.924Z,27.33
2022-11-29T03:25:13.917Z,19.37
2022-11-29T03:27:46.758Z,26.30
2022-11-29T03:30:19.629Z,23.87
2022-11-29T03:32:57.315Z,32.37
2022-11-29T03:35:30.952Z,25.77
2022-11-29T03:38:06.832Z,28.07
2022-11-29T03:40:43.191Z,30.23
2022-11-29T03:43:16.997Z,27.43
2022-11-29T03:45:49.740Z,30.23
2022-11-29T03:48:23.081Z,31.37
2022-11-29T03:50:54.990Z,28.67
2022-11-29T03:53:32.870Z,26.00
2022-11-29T03:56:02.221Z,31.43
2022-11-29T03:58:49.607Z,32.00
2022-11-29T04:01:52.066Z,30.37
2022-11-29T04:05:04.825Z,33.67
2022-11-29T04:07:45.596Z,36.37
2022-11-29T04:10:22.449Z,40.30
2022-11-29T04:13:07.909Z,41.70
2022-11-29T04:16:11.047Z,44.73
2022-11-29T04:19:14.205Z,38.20
2022-11-29T04:22:06.902Z,32.93
2022-11-29T04:25:14.901Z,47.27
2022-11-29T04:28:08.497Z,37.77
2022-11-29T04:30:47.219Z,33.87
2022-11-29T04:33:48.306Z,46.70
2022-11-29T04:36:39.167Z,46.93
2022-11-29T04:39:50.320Z,48.33
2022-11-29T04:42:42.671Z,46.77
2022-11-29T04:45:46.771Z,46.93
2022-11-29T04:48:31.899Z,54.50
2022-11-29T04:51:07.349Z,52.50
2022-11-29T04:53:48.880Z,53.67
2022-11-29T04:56:26.574Z,50.63
2022-11-29T04:59:03.319Z,52.20
2022-11-29T05:01:42.387Z,58.67
2022-11-29T05:04:17.674Z,63.93
2022-11-29T05:06:56.118Z,66.03
2022-11-29T05:09:33.934Z,66.27
2022-11-29T05:12:09.962Z,60.70
2022-11-29T05:14:51.533Z,67.80
2022-11-29T05:17:43.475Z,67.33
2022-11-29T05:20:27.473Z,73.40
2022-11-29T05:23:10.955Z,71.93
2022-11-29T05:25:50.029Z,73.47
2022-11-29T05:28:25.797Z,78.20
2022-11-29T05:31:17.164Z,73.93
2022-11-29T05:34:02.843Z,72.70
2022-11-29T05:36:40.962Z,71.47
2022-11-29T05:39:30.654Z,80.93
2022-11-29T05:42:13.689Z,80.27
2022-11-29T05:44:48.542Z,83.80
2022-11-29T05:47:28.243Z,81.47
2022-11-29T05:50:08.454Z,83.53
2022-11-29T05:52:46.082Z,89.73
2022-11-29T05:55:25.898Z,86.13
2022-11-29T05:57:58.536Z,92.97
2022-11-29T06:00:31.459Z,81.57
2022-11-29T06:03:04.373Z,90.33
2022-11-29T06:05:40.355Z,81.37
2022-11-29T06:08:14.365Z,86.77
2022-11-29T06:10:53.531Z,84.23
2022-11-29T06:13:37.380Z,94.33
2022-11-29T06:16:32.269Z,84.90
2022-11-29T06:19:40.533Z,82.90
2022-11-29T06:22:24.989Z,87.63
2022-11-29T06:25:14.310Z,82.70
2022-11-29T06:27:57.742Z,84.67
2022-11-29T06:30:30.654Z,92.83
2022-11-29T06:33:08.257Z,98.53
2022-11-29T06:35:45.788Z,84.77
2022-11-29T06:38:21.856Z,84.13
2022-11-29T06:40:50.113Z,89.57
2022-11-29T06:43:18.666Z,84.37
2022-11-29T06:45:53.645Z,92.33
2022-11-29T06:48:25.929Z,95.60
2022-11-29T06:51:02.061Z,91.17
2022-11-29T06:53:44.843Z,89.33
2022-11-29T06:56:22.515Z,92.70
2022-11-29T06:58:59.988Z,87.17
2022-11-29T07:01:37.248Z,91.00
2022-11-29T07:04:52.244Z,91.10
2022-11-29T07:07:25.807Z,86.77
2022-11-29T07:09:59.532Z,85.30
2022-11-29T07:12:28.211Z,81.80
2022-11-29T07:14:57.050Z,80.13
2022-11-29T07:17:31.743Z,82.30
2022-11-29T07:20:08.025Z,80.27
2022-11-29T07:22:48.705Z,77.07
2022-11-29T07:25:27.737Z,84.90
2022-11-29T07:28:06.264Z,78.60
2022-11-29T07:30:47.088Z,87.00
2022-11-29T07:33:24.636Z,88.43
2022-11-29T07:36:02.406Z,78.63
2022-11-29T07:38:51.649Z,77.53
2022-11-29T07:41:28.806Z,87.50
2022-11-29T07:44:07.983Z,87.23
2022-11-29T07:46:35.698Z,82.03
2022-11-29T07:49:03.546Z,81.30
2022-11-29T07:51:32.629Z,84.73
2022-11-29T07:54:01.153Z,81.07
2022-11-29T07:56:30.377Z,80.77
2022-11-29T07:58:58.170Z,83.87
2022-11-29T08:01:26.023Z,94.83
2022-11-29T08:03:53.773Z,81.40
2022-11-29T08:06:25.882Z,78.60
2022-11-29T08:08:53.754Z,82.80
2022-11-29T08:11:21.554Z,80.80
2022-11-29T08:13:50.634Z,75.03
2022-11-29T08:16:19.215Z,76.20
2022-11-29T08:18:47.101Z,69.80
2022-11-29T08:21:18.065Z,77.03
2022-11-29T08:23:45.921Z,85.43
2022-11-29T08:26:14.165Z,69.37
2022-11-29T08:28:42.156Z,74.97
2022-11-29T08:31:13.188Z,68.23
2022-11-29T08:33:42.718Z,72.13
2022-11-29T08:36:13.011Z,67.27
2022-11-29T08:38:41.037Z,70.80
2022-11-29T08:41:11.614Z,70.23
2022-11-29T08:43:39.332Z,65.33
2022-11-29T08:46:07.637Z,60.80
2022-11-29T08:48:36.962Z,62.77
2022-11-29T08:51:06.118Z,72.67
2022-11-29T08:53:42.014Z,60.53
2022-11-29T08:56:41.811Z,56.77
2022-11-29T08:58:59.006Z,65.40
2022-11-29T09:01:26.815Z,67.33
2022-11-29T09:04:03.529Z,65.30
2022-11-29T09:06:32.810Z,67.00
2022-11-29T09:09:01.597Z,56.10
2022-11-29T09:11:31.360Z,64.90
2022-11-29T09:14:01.311Z,58.40
2022-11-29T09:16:31.228Z,65.40
2022-11-29T09:19:02.963Z,61.13
2022-11-29T09:21:32.948Z,52.63
2022-11-29T09:24:02.300Z,58.60
2022-11-29T09:26:32.703Z,65.03
2022-11-29T09:29:01.201Z,63.50
2022-11-29T09:31:29.980Z,64.43
2022-11-29T09:33:58.127Z,53.80
2022-11-29T09:36:29.171Z,63.17
2022-11-29T09:38:57.420Z,61.87
2022-11-29T09:41:42.962Z,60.43
2022-11-29T09:44:22.191Z,59.80
2022-11-29T09:47:01.350Z,63.07
2022-11-29T09:49:44.949Z,62.17
2022-11-29T09:52:22.365Z,52.83
2022-11-29T09:54:58.286Z,55.73
2022-11-29T09:57:27.131Z,55.53
2022-11-29T10:00:00.640Z,56.23
2022-11-29T10:02:37.279Z,56.13
2022-11-29T10:05:14.407Z,61.53
2022-11-29T10:07:49.349Z,51.27
2022-11-29T10:10:21.337Z,61.47
2022-11-29T10:12:54.195Z,61.33
2022-11-29T10:15:25.345Z,67.97
2022-11-29T10:17:56.610Z,54.40
2022-11-29T10:20:27.308Z,72.20
2022-11-29T10:23:00.764Z,73.97
2022-11-29T10:25:34.373Z,61.03
2022-11-29T10:28:02.132Z,67.47
2022-11-29T10:30:30.875Z,63.00
2022-11-29T10:33:01.178Z,77.13
2022-11-29T10:35:29.499Z,58.17
2022-11-29T10:40:54.667Z,59.03
2022-11-29T10:43:22.496Z,59.43
2022-11-29T10:45:56.125Z,55.27
2022-11-29T10:48:28.022Z,49.37
2022-11-29T10:50:55.767Z,51.47
2022-11-29T10:53:27.345Z,47.57
2022-11-29T10:56:03.589Z,47.43
2022-11-29T10:58:32.488Z,40.83
2022-11-29T11:01:02.091Z,40.53
2022-11-29T11:03:35.373Z,50.50
2022-11-29T11:06:10.483Z,46.23
2022-11-29T11:08:42.551Z,46.47
2022-11-29T11:11:11.474Z,56.80
2022-11-29T11:13:40.961Z,53.63
2022-11-29T11:16:17.161Z,51.10
2022-11-29T11:18:46.081Z,53.47
2022-11-29T11:21:16.380Z,54.03
2022-11-29T11:23:53.891Z,55.20
2022-11-29T11:26:21.787Z,48.77
2022-11-29T11:28:53.631Z,50.33
2022-11-29T11:31:30.973Z,46.83
2022-11-29T11:34:26.453Z,53.43
2022-11-29T11:36:54.937Z,50.03
2022-11-29T11:39:25.510Z,60.33
2022-11-29T11:42:11.162Z,52.57
2022-11-29T11:44:49.214Z,58.90
2022-11-29T11:47:19.807Z,56.67
2022-11-29T11:49:50.330Z,55.07
2022-11-29T11:52:22.202Z,53.20
2022-11-29T11:54:55.401Z,52.27
2022-11-29T11:57:25.358Z,58.50
2022-11-29T11:59:55.744Z,53.10
2022-11-29T12:02:37.470Z,62.40
2022-11-29T12:05:11.960Z,57.47
2022-11-29T12:08:07.467Z,50.80
2022-11-29T12:10:35.931Z,52.30
2022-11-29T12:13:03.957Z,55.53
2022-11-29T12:15:38.153Z,60.03
2022-11-29T12:18:12.544Z,56.43
2022-11-29T12:20:45.165Z,57.10
2022-11-29T12:23:27.513Z,64.03
2022-11-29T12:26:01.092Z,55.90
2022-11-29T12:28:32.744Z,52.97
2022-11-29T12:31:13.111Z,62.50
2022-11-29T12:33:48.370Z,49.53
2022-11-29T12:36:26.073Z,69.63
2022-11-29T12:39:04.729Z,78.20
2022-11-29T12:41:47.249Z,58.60
2022-11-29T12:44:31.439Z,52.43
2022-11-29T12:50:08.893Z,51.13
2022-11-29T12:52:48.060Z,45.93
2022-11-29T12:55:24.446Z,47.87
2022-11-29T12:58:03.230Z,46.17
2022-11-29T13:00:40.291Z,50.30
2022-11-29T13:03:17.924Z,43.70
2022-11-29T13:06:03.708Z,43.23
2022-11-29T13:08:57.160Z,47.63
2022-11-29T13:11:28.469Z,45.40
2022-11-29T13:14:34.762Z,39.70
2022-11-29T13:16:57.814Z,44.63
2022-11-29T13:19:34.057Z,41.23
2022-11-29T13:22:11.837Z,42.50
2022-11-29T13:24:45.171Z,41.80
2022-11-29T13:27:19.185Z,43.93
2022-11-29T13:29:50.141Z,49.77
2022-11-29T13:32:35.491Z,49.97
2022-11-29T13:35:09.109Z,44.50
2022-11-29T13:37:44.166Z,44.97
2022-11-29T13:40:24.427Z,45.60
2022-11-29T13:43:00.228Z,44.87
2022-11-29T13:45:37.401Z,40.13
2022-11-29T13:48:37.675Z,44.17
2022-11-29T13:51:27.902Z,39.33
2022-11-29T13:53:56.965Z,43.97
2022-11-29T13:56:32.658Z,46.90
2022-11-29T13:59:02.072Z,46.83
2022-11-29T14:01:43.342Z,43.07
2022-11-29T14:04:24.036Z,45.13
2022-11-29T14:07:03.560Z,43.40
2022-11-29T14:09:36.921Z,51.40
2022-11-29T14:12:19.656Z,54.43
2022-11-29T14:14:52.942Z,53.80
2022-11-29T14:17:46.251Z,50.37
2022-11-29T14:20:45.273Z,54.63
2022-11-29T14:23:18.835Z,57.10
2022-11-29T14:26:29.202Z,54.80
2022-11-29T14:28:58.218Z,52.60
2022-11-29T14:31:51.278Z,58.63
2022-11-29T14:34:45.840Z,49.40
2022-11-29T14:37:30.493Z,48.27
2022-11-29T14:40:02.380Z,61.10
2022-11-29T14:42:30.848Z,60.97
2022-11-29T14:45:01.478Z,54.17
2022-11-29T14:47:32.475Z,55.90
2022-11-29T14:50:06.508Z,55.03
2022-11-29T14:52:38.641Z,59.83
2022-11-29T14:55:09.666Z,72.83
2022-11-29T14:58:06.057Z,64.30
2022-11-29T15:00:44.434Z,56.00
2022-11-29T15:03:17.973Z,49.73
2022-11-29T15:05:51.087Z,56.37
2022-11-29T15:08:30.106Z,47.37
2022-11-29T15:11:02.858Z,50.67
2022-11-29T15:13:32.832Z,56.53
2022-11-29T15:16:19.887Z,56.70
2022-11-29T15:19:17.379Z,52.93
2022-11-29T15:21:56.932Z,54.50
2022-11-29T15:24:28.308Z,50.00
2022-11-29T15:26:57.556Z,52.87
2022-11-29T15:29:26.103Z,49.53
2022-11-29T15:31:56.100Z,45.37
2022-11-29T15:34:31.492Z,51.27
2022-11-29T15:37:01.609Z,54.03
2022-11-29T15:39:31.694Z,51.27
2022-11-29T15:42:11.227Z,51.03
2022-11-29T15:44:45.673Z,49.90
2022-11-29T15:47:21.748Z,48.67
2022-11-29T15:49:50.009Z,44.10
2022-11-29T15:52:25.043Z,48.20
2022-11-29T15:54:57.763Z,47.77
2022-11-29T15:57:28.921Z,46.73
2022-11-29T15:59:59.310Z,49.00
2022-11-29T16:02:29.240Z,50.57
2022-11-29T16:05:00.879Z,48.87
2022-11-29T16:07:34.291Z,50.77
2022-11-29T16:10:12.551Z,47.93
2022-11-29T16:12:53.021Z,51.20
2022-11-29T16:15:30.282Z,45.60
2022-11-29T16:18:04.134Z,43.53
2022-11-29T16:20:32.294Z,54.70
2022-11-29T16:23:12.651Z,51.90
2022-11-29T16:25:54.872Z,44.07
2022-11-29T16:28:23.088Z,48.67
2022-11-29T16:30:53.064Z,47.63
2022-11-29T16:33:24.605Z,45.83
2022-11-29T16:35:52.873Z,41.97
2022-11-29T16:38:24.019Z,48.53
2022-11-29T16:41:07.195Z,43.93
2022-11-29T16:43:53.617Z,43.83
2022-11-29T16:46:38.932Z,46.03
2022-11-29T16:49:33.434Z,47.43
2022-11-29T16:52:01.707Z,43.67
2022-11-29T16:54:34.152Z,45.07
2022-11-29T16:57:06.116Z,48.87
2022-11-29T16:59:35.266Z,45.97
2022-11-29T17:02:03.169Z,42.80
2022-11-29T17:04:31.027Z,42.00
2022-11-29T17:06:58.794Z,40.90
2022-11-29T17:09:29.086Z,41.87
2022-11-29T17:12:00.939Z,38.23
2022-11-29T17:14:29.214Z,34.03
2022-11-29T17:16:57.016Z,32.90
2022-11-29T17:19:25.397Z,33.20
2022-11-29T17:21:53.369Z,35.37
2022-11-29T17:24:22.777Z,39.80
2022-11-29T17:26:51.342Z,36.63
2022-11-29T17:29:20.617Z,32.30
2022-11-29T17:31:50.400Z,28.77
2022-11-29T17:34:18.737Z,28.60
2022-11-29T17:36:46.626Z,29.97
2022-11-29T17:39:15.654Z,31.37
2022-11-29T17:41:43.535Z,31.00
2022-11-29T17:44:11.355Z,26.97
2022-11-29T17:46:40.669Z,25.43
2022-11-29T17:49:09.649Z,30.50
2022-11-29T17:51:55.492Z,29.37
2022-11-29T17:54:23.749Z,28.80
2022-11-29T17:56:52.062Z,24.63
2022-11-29T17:59:20.371Z,27.63
2022-11-29T18:01:49.624Z,27.67
2022-11-29T18:04:17.549Z,24.23
2022-11-29T18:06:49.514Z,28.57
2022-11-29T18:09:18.390Z,28.83
2022-11-29T18:11:49.279Z,30.27
2022-11-29T18:14:20.896Z,32.90
2022-11-29T18:16:50.308Z,29.13
2022-11-29T18:19:22.137Z,32.23
2022-11-29T18:21:50.589Z,26.47
2022-11-29T18:24:19.077Z,26.47
2022-11-29T18:26:47.458Z,26.53
2022-11-29T18:29:15.741Z,30.17
2022-11-29T18:31:45.100Z,30.73
2022-11-29T18:34:15.762Z,29.77
2022-11-29T18:36:45.107Z,27.07
2022-11-29T18:39:14.996Z,27.73
2022-11-29T18:41:44.202Z,26.23
2022-11-29T18:44:14.255Z,27.40
2022-11-29T18:46:43.943Z,26.17
2022-11-29T18:49:15.256Z,27.00
2022-11-29T18:51:44.586Z,29.77
2022-11-29T18:54:13.429Z,25.63
2022-11-29T18:56:42.300Z,25.87
2022-11-29T18:59:12.027Z,27.47
2022-11-29T19:01:42.552Z,27.30
2022-11-29T19:04:12.514Z,24.20
2022-11-29T19:06:42.414Z,24.00
2022-11-29T19:09:15.303Z,26.70
2022-11-29T19:11:43.339Z,26.80
2022-11-29T19:14:13.196Z,32.97
2022-11-29T19:16:43.765Z,35.10
2022-11-29T19:19:11.986Z,38.13
2022-11-29T19:21:43.836Z,40.57
2022-11-29T19:24:17.873Z,36.40
2022-11-29T19:26:47.603Z,29.27
2022-11-29T19:29:16.386Z,31.13
2022-11-29T19:31:44.283Z,36.57
2022-11-29T19:34:12.416Z,34.17
2022-11-29T19:36:44.254Z,37.63
2022-11-29T19:39:13.836Z,34.17
2022-11-29T19:41:43.989Z,35.57
2022-11-29T19:44:12.764Z,36.03
2022-11-29T19:46:42.713Z,31.60
2022-11-29T19:49:11.149Z,32.70
2022-11-29T19:51:39.563Z,34.60
2022-11-29T19:54:10.555Z,30.30
2022-11-29T19:56:38.987Z,35.37
2022-11-29T19:59:07.479Z,33.00
2022-11-29T20:01:40.856Z,31.40
2022-11-29T20:04:11.053Z,30.70
2022-11-29T20:06:38.938Z,32.70
2022-11-29T20:09:08.256Z,34.90
2022-11-29T20:11:36.510Z,32.47
2022-11-29T20:14:06.230Z,33.57
2022-11-29T20:16:34.305Z,28.20
2022-11-29T20:19:02.141Z,34.50
2022-11-29T20:21:31.803Z,32.17
2022-11-29T20:24:01.346Z,34.23
2022-11-29T20:26:31.572Z,35.67
2022-11-29T20:29:00.154Z,37.10
2022-11-29T20:31:27.997Z,36.00
2022-11-29T20:33:57.429Z,38.57
2022-11-29T20:36:43.163Z,35.43
2022-11-29T20:39:24.732Z,35.73
2022-11-29T20:42:10.821Z,33.17
2022-11-29T20:44:41.224Z,38.40
2022-11-29T20:47:15.123Z,36.93
2022-11-29T20:49:43.284Z,33.57
2022-11-29T20:52:29.799Z,40.43
2022-11-29T20:54:57.553Z,37.87
2022-11-29T20:57:26.698Z,36.87
2022-11-29T20:59:54.617Z,35.23
2022-11-29T21:02:22.600Z,38.10
2022-11-29T21:04:50.374Z,37.90
2022-11-29T21:07:18.905Z,40.37
2022-11-29T21:09:47.103Z,40.03
2022-11-29T21:12:15.763Z,38.97
2022-11-29T21:14:45.910Z,36.77
2022-11-29T21:17:14.373Z,41.33
2022-11-29T21:19:42.643Z,35.10
2022-11-29T21:22:19.970Z,35.90
2022-11-29T21:24:55.859Z,38.27
2022-11-29T21:27:31.524Z,39.43
2022-11-29T21:30:03.267Z,32.63
2022-11-29T21:32:31.480Z,36.27
2022-11-29T21:34:59.815Z,38.17
2022-11-29T21:37:30.156Z,35.57
2022-11-29T21:39:58.848Z,37.60
2022-11-29T21:42:27.258Z,36.80
2022-11-29T21:44:55.106Z,38.53
2022-11-29T21:47:24.227Z,38.20
2022-11-29T21:49:52.787Z,35.30
2022-11-29T21:52:22.718Z,35.33
2022-11-29T21:54:51.511Z,35.20
2022-11-29T21:57:19.285Z,36.93
2022-11-29T21:59:47.109Z,35.60
2022-11-29T22:02:15.004Z,35.63
2022-11-29T22:04:44.499Z,42.23
2022-11-29T22:07:12.451Z,36.30
2022-11-29T22:09:40.224Z,38.80
2022-11-29T22:12:31.906Z,44.80
2022-11-29T22:14:55.822Z,48.87
2022-11-29T22:17:23.777Z,48.03
2022-11-29T22:19:52.965Z,47.47
2022-11-29T22:22:20.730Z,51.97
2022-11-29T22:24:48.666Z,41.93
2022-11-29T22:27:18.303Z,45.57
2022-11-29T22:29:46.170Z,45.00
2022-11-29T22:32:14.678Z,35.90
2022-11-29T22:34:42.401Z,45.43
2022-11-29T22:37:12.415Z,46.73
2022-11-29T22:39:40.190Z,43.10
2022-11-29T22:42:08.196Z,41.73
2022-11-29T22:44:35.936Z,42.97
2022-11-29T22:47:03.708Z,45.23
2022-11-29T22:49:33.159Z,39.70
2022-11-29T22:52:01.103Z,43.40
2022-11-29T22:54:30.192Z,36.70
2022-11-29T22:56:57.918Z,44.80
2022-11-29T22:59:25.635Z,43.87
2022-11-29T23:01:53.380Z,42.80
2022-11-29T23:04:21.196Z,42.53
2022-11-29T23:06:48.906Z,40.70
2022-11-29T23:09:21.098Z,46.07
2022-11-29T23:11:53.404Z,43.07
2022-11-29T23:14:22.309Z,42.40
2022-11-29T23:16:50.461Z,45.63
2022-11-29T23:19:18.504Z,42.00
2022-11-29T23:21:46.427Z,47.10
2022-11-29T23:24:15.003Z,43.83
2022-11-29T23:26:46.205Z,43.73
2022-11-29T23:29:16.759Z,47.80
2022-11-29T23:31:45.138Z,48.70
2022-11-29T23:34:13.412Z,46.20
2022-11-29T23:36:41.441Z,47.23
2022-11-29T23:39:09.166Z,45.17
2022-11-29T23:41:37.561Z,42.50
2022-11-29T23:44:05.866Z,42.63
2022-11-29T23:46:36.207Z,41.77
2022-11-29T23:49:04.122Z,43.47
2022-11-29T23:51:31.911Z,41.03
2022-11-29T23:53:59.665Z,49.93
2022-11-29T23:56:27.456Z,52.97
2022-11-29T23:58:55.216Z,50.10
